createdAt,value
2022-11-09T00:01:50.332Z,15.50
2022-11-09T00:04:20.585Z,15.40
2022-11-09T00:06:50.916Z,15.50
2022-11-09T00:09:21.533Z,15.50
2022-11-09T00:11:56.034Z,15.40
2022-11-09T00:14:26.301Z,15.40
2022-11-09T00:16:56.890Z,15.40
2022-11-09T00:19:27.431Z,15.40
2022-11-09T00:21:57.864Z,15.40
2022-11-09T00:24:28.228Z,15.30
2022-11-09T00:27:01.085Z,15.30
2022-11-09T00:29:32.364Z,15.30
2022-11-09T00:32:02.692Z,15.30
2022-11-09T00:34:32.998Z,15.30
2022-11-09T00:37:03.324Z,15.30
2022-11-09T00:39:33.604Z,15.20
2022-11-09T00:42:07.485Z,15.30
2022-11-09T00:44:37.714Z,15.20
2022-11-09T00:47:08.063Z,15.20
2022-11-09T00:49:38.268Z,15.20
2022-11-09T00:52:08.797Z,15.20
2022-11-09T00:54:39.104Z,15.20
2022-11-09T00:57:11.963Z,15.10
2022-11-09T00:59:43.451Z,15.10
2022-11-09T01:02:13.691Z,15.10
2022-11-09T01:04:43.933Z,15.10
2022-11-09T01:07:14.199Z,15.10
2022-11-09T01:09:44.887Z,15.10
2022-11-09T01:12:17.701Z,15.10
2022-11-09T01:14:48.286Z,15.00
2022-11-09T01:17:18.508Z,15.00
2022-11-09T01:19:50.465Z,15.00
2022-11-09T01:22:21.553Z,15.00
2022-11-09T01:24:52.145Z,15.00
2022-11-09T01:27:24.975Z,15.00
2022-11-09T01:29:55.193Z,14.90
2022-11-09T01:32:25.314Z,14.90
2022-11-09T01:34:55.649Z,15.00
2022-11-09T01:37:25.886Z,14.90
2022-11-09T01:39:56.164Z,14.90
2022-11-09T01:42:31.824Z,14.90
2022-11-09T01:45:27.996Z,14.90
2022-11-09T01:48:03.441Z,14.90
2022-11-09T01:50:42.809Z,15.00
2022-11-09T01:53:18.929Z,14.90
2022-11-09T01:55:53.292Z,14.90
2022-11-09T01:58:29.241Z,14.90
2022-11-09T02:01:01.653Z,14.90
2022-11-09T02:03:37.355Z,14.90
2022-11-09T02:06:11.680Z,15.00
2022-11-09T02:08:42.611Z,14.90
2022-11-09T02:11:17.992Z,14.90
2022-11-09T02:14:00.024Z,14.90
2022-11-09T02:16:31.842Z,14.90
2022-11-09T02:19:03.707Z,14.90
2022-11-09T02:21:37.276Z,14.90
2022-11-09T02:24:08.385Z,14.90
2022-11-09T02:26:44.407Z,14.90
2022-11-09T02:29:19.890Z,14.90
2022-11-09T02:31:52.407Z,14.90
2022-11-09T02:34:24.558Z,14.90
2022-11-09T02:36:57.537Z,14.90
2022-11-09T02:39:30.719Z,14.80
2022-11-09T02:42:09.046Z,14.80
2022-11-09T02:44:44.852Z,14.70
2022-11-09T02:47:15.193Z,14.80
2022-11-09T02:49:46.139Z,14.70
2022-11-09T02:52:19.387Z,14.70
2022-11-09T02:54:49.706Z,14.70
2022-11-09T02:57:20.651Z,14.70
2022-11-09T02:59:52.358Z,14.70
2022-11-09T03:02:23.616Z,14.70
2022-11-09T03:04:55.200Z,14.60
2022-11-09T03:07:28.540Z,14.60
2022-11-09T03:09:59.531Z,14.70
2022-11-09T03:12:33.505Z,14.60
2022-11-09T03:15:11.907Z,14.60
2022-11-09T03:17:48.476Z,14.60
2022-11-09T03:20:20.280Z,14.60
2022-11-09T03:22:54.535Z,14.60
2022-11-09T03:25:24.779Z,14.50
2022-11-09T03:28:00.683Z,14.50
2022-11-09T03:30:31.721Z,14.50
2022-11-09T03:33:03.216Z,14.50
2022-11-09T03:35:33.965Z,14.50
2022-11-09T03:38:07.485Z,14.50
2022-11-09T03:40:38.749Z,14.50
2022-11-09T03:43:09.067Z,14.50
2022-11-09T03:45:39.556Z,14.50
2022-11-09T03:48:09.949Z,14.50
2022-11-09T03:50:41.228Z,14.50
2022-11-09T03:53:14.643Z,14.50
2022-11-09T03:55:44.921Z,14.50
2022-11-09T03:58:15.388Z,14.50
2022-11-09T04:00:45.788Z,14.50
2022-11-09T04:03:16.029Z,14.50
2022-11-09T04:05:46.206Z,14.50
2022-11-09T04:08:19.039Z,14.50
2022-11-09T04:10:49.324Z,14.50
2022-11-09T04:13:19.685Z,14.50
2022-11-09T04:15:49.950Z,14.50
2022-11-09T04:18:20.793Z,14.50
2022-11-09T04:20:51.011Z,14.40
2022-11-09T04:23:23.836Z,14.50
2022-11-09T04:25:54.053Z,14.40
2022-11-09T04:28:24.503Z,14.40
2022-11-09T04:30:54.794Z,14.30
2022-11-09T04:33:25.063Z,14.30
2022-11-09T04:35:55.211Z,14.30
2022-11-09T04:38:28.025Z,14.30
2022-11-09T04:40:58.208Z,14.40
2022-11-09T04:43:28.446Z,14.30
2022-11-09T04:46:01.749Z,14.30
2022-11-09T04:48:32.958Z,14.30
2022-11-09T04:51:04.223Z,14.20
2022-11-09T04:53:37.889Z,14.30
2022-11-09T04:56:09.715Z,14.20
2022-11-09T04:58:40.347Z,14.20
2022-11-09T05:01:13.237Z,14.20
2022-11-09T05:03:43.915Z,14.20
2022-11-09T05:06:26.955Z,14.20
2022-11-09T05:09:00.249Z,14.20
2022-11-09T05:11:30.551Z,14.20
2022-11-09T05:14:00.948Z,14.10
2022-11-09T05:16:32.191Z,14.20
2022-11-09T05:19:02.401Z,14.20
2022-11-09T05:21:32.644Z,14.10
2022-11-09T05:24:03.184Z,14.10
2022-11-09T05:26:34.754Z,14.10
2022-11-09T05:29:07.205Z,14.10
2022-11-09T05:31:38.247Z,14.00
2022-11-09T05:34:09.893Z,14.10
2022-11-09T05:36:40.130Z,14.00
2022-11-09T05:39:13.004Z,14.10
2022-11-09T05:41:43.178Z,14.00
2022-11-09T05:44:13.455Z,14.10
2022-11-09T05:46:43.639Z,14.00
2022-11-09T05:49:14.090Z,14.00
2022-11-09T05:51:44.261Z,14.00
2022-11-09T05:54:17.125Z,14.00
2022-11-09T05:56:47.313Z,13.90
2022-11-09T05:59:17.603Z,13.90
2022-11-09T06:01:47.764Z,14.00
2022-11-09T06:04:18.006Z,13.90
2022-11-09T06:06:48.223Z,13.90
2022-11-09T06:09:21.146Z,13.80
2022-11-09T06:11:53.553Z,13.80
2022-11-09T06:14:23.853Z,13.90
2022-11-09T06:16:54.030Z,13.80
2022-11-09T06:19:24.403Z,13.80
2022-11-09T06:21:54.596Z,13.80
2022-11-09T06:24:27.539Z,13.80
2022-11-09T06:26:57.762Z,13.80
2022-11-09T06:29:28.091Z,13.80
2022-11-09T06:31:58.500Z,13.80
2022-11-09T06:34:30.566Z,13.70
2022-11-09T06:37:00.739Z,13.70
2022-11-09T06:39:33.613Z,13.70
2022-11-09T06:42:04.261Z,13.70
2022-11-09T06:44:34.596Z,13.60
2022-11-09T06:47:04.833Z,13.60
2022-11-09T06:49:35.124Z,13.60
2022-11-09T06:52:05.878Z,13.60
2022-11-09T06:54:38.742Z,13.50
2022-11-09T06:57:08.957Z,13.50
2022-11-09T06:59:39.277Z,13.50
2022-11-09T07:02:11.518Z,13.40
2022-11-09T07:04:41.773Z,13.50
2022-11-09T07:07:11.952Z,13.50
2022-11-09T07:09:44.945Z,13.50
2022-11-09T07:12:15.111Z,13.40
2022-11-09T07:14:45.467Z,13.40
2022-11-09T07:17:15.645Z,13.40
2022-11-09T07:19:45.877Z,13.40
2022-11-09T07:22:16.143Z,13.50
2022-11-09T07:24:49.024Z,13.40
2022-11-09T07:27:23.560Z,13.40
2022-11-09T07:29:56.760Z,13.40
2022-11-09T07:32:53.818Z,13.40
2022-11-09T07:35:17.238Z,13.40
2022-11-09T07:37:47.419Z,13.40
2022-11-09T07:40:20.409Z,13.40
2022-11-09T07:42:50.638Z,13.40
2022-11-09T07:45:21.066Z,13.40
2022-11-09T07:47:51.297Z,13.40
2022-11-09T07:50:21.727Z,13.40
2022-11-09T07:52:51.934Z,13.40
2022-11-09T07:55:25.167Z,13.40
2022-11-09T07:57:59.420Z,13.40
2022-11-09T08:00:31.579Z,13.40
2022-11-09T08:03:02.151Z,13.40
2022-11-09T08:05:32.914Z,13.30
2022-11-09T08:08:04.803Z,13.40
2022-11-09T08:10:39.312Z,13.30
2022-11-09T08:13:13.575Z,13.30
2022-11-09T08:15:44.834Z,13.40
2022-11-09T08:18:16.791Z,13.40
2022-11-09T08:20:47.320Z,13.40
2022-11-09T08:23:19.407Z,13.40
2022-11-09T08:25:53.104Z,13.40
2022-11-09T08:28:23.618Z,13.40
2022-11-09T08:31:00.287Z,13.40
2022-11-09T08:33:32.158Z,13.40
2022-11-09T08:36:02.592Z,13.40
2022-11-09T08:38:33.362Z,13.40
2022-11-09T08:41:12.020Z,13.40
2022-11-09T08:43:43.758Z,13.60
2022-11-09T08:46:14.076Z,13.50
2022-11-09T08:48:44.361Z,13.50
2022-11-09T08:51:14.706Z,13.50
2022-11-09T08:53:44.974Z,13.60
2022-11-09T08:56:19.333Z,13.60
2022-11-09T08:58:49.745Z,13.60
2022-11-09T09:01:20.236Z,13.60
2022-11-09T09:03:50.456Z,13.60
2022-11-09T09:06:20.871Z,13.60
2022-11-09T09:08:51.068Z,13.60
2022-11-09T09:11:24.122Z,13.60
2022-11-09T09:13:54.338Z,13.60
2022-11-09T09:16:24.754Z,13.70
2022-11-09T09:18:55.037Z,13.80
2022-11-09T09:21:25.507Z,13.70
2022-11-09T09:23:55.828Z,13.70
2022-11-09T09:26:28.928Z,13.70
2022-11-09T09:28:59.335Z,13.70
2022-11-09T09:31:30.099Z,13.70
2022-11-09T09:34:02.671Z,13.70
2022-11-09T09:36:33.097Z,13.80
2022-11-09T09:39:03.451Z,13.80
2022-11-09T09:41:40.102Z,13.80
2022-11-09T09:44:21.309Z,13.90
2022-11-09T09:46:58.659Z,14.00
2022-11-09T09:49:32.657Z,13.90
2022-11-09T09:52:08.918Z,13.90
2022-11-09T09:54:44.242Z,14.00
2022-11-09T09:57:22.807Z,14.00
2022-11-09T09:59:53.694Z,14.00
2022-11-09T10:02:26.610Z,14.10
2022-11-09T10:04:59.185Z,14.20
2022-11-09T10:07:37.599Z,14.20
2022-11-09T10:10:32.414Z,14.20
2022-11-09T10:13:28.801Z,14.20
2022-11-09T10:16:04.785Z,14.20
2022-11-09T10:18:47.833Z,14.30
2022-11-09T10:21:33.594Z,14.20
2022-11-09T10:24:16.127Z,14.20
2022-11-09T10:26:50.812Z,14.20
2022-11-09T10:29:29.686Z,14.30
2022-11-09T10:32:15.704Z,14.30
2022-11-09T10:34:55.986Z,14.30
2022-11-09T10:37:31.595Z,14.30
2022-11-09T10:40:07.159Z,14.30
2022-11-09T10:42:59.143Z,14.30
2022-11-09T10:46:05.748Z,14.30
2022-11-09T10:48:56.003Z,14.40
2022-11-09T10:51:46.679Z,14.40
2022-11-09T10:54:38.219Z,14.40
2022-11-09T10:57:28.532Z,14.60
2022-11-09T11:00:20.045Z,14.60
2022-11-09T11:03:22.058Z,14.50
2022-11-09T11:06:18.869Z,14.40
2022-11-09T11:09:19.440Z,14.40
2022-11-09T11:12:18.141Z,14.40
2022-11-09T11:15:24.585Z,14.40
2022-11-09T11:18:23.237Z,14.40
2022-11-09T11:21:19.348Z,14.50
2022-11-09T11:24:19.828Z,14.50
2022-11-09T11:27:13.596Z,14.60
2022-11-09T11:30:13.490Z,14.60
2022-11-09T11:33:03.059Z,14.60
2022-11-09T11:35:59.583Z,14.60
2022-11-09T11:38:56.958Z,14.60
2022-11-09T11:42:00.665Z,14.60
2022-11-09T11:45:38.346Z,14.50
2022-11-09T11:48:46.014Z,14.50
2022-11-09T11:51:45.762Z,14.50
2022-11-09T11:54:44.657Z,14.40
2022-11-09T11:57:55.970Z,14.40
2022-11-09T12:00:53.273Z,14.30
2022-11-09T12:03:53.119Z,14.40
2022-11-09T12:07:01.848Z,14.40
2022-11-09T12:10:13.463Z,14.50
2022-11-09T12:13:08.709Z,14.40
2022-11-09T12:16:04.921Z,14.50
2022-11-09T12:19:04.578Z,14.40
2022-11-09T12:22:02.388Z,14.50
2022-11-09T12:25:00.227Z,14.50
2022-11-09T12:28:22.013Z,14.50
2022-11-09T12:31:20.625Z,14.40
2022-11-09T12:34:16.814Z,14.40
2022-11-09T12:37:15.373Z,14.30
2022-11-09T12:40:13.868Z,14.30
2022-11-09T12:43:08.851Z,14.00
2022-11-09T12:45:59.228Z,13.90
2022-11-09T12:48:51.164Z,13.90
2022-11-09T12:51:41.124Z,14.00
2022-11-09T12:54:33.030Z,13.90
2022-11-09T12:57:27.211Z,14.00
2022-11-09T13:00:55.461Z,14.00
2022-11-09T13:03:55.791Z,14.00
2022-11-09T13:06:45.170Z,14.10
2022-11-09T13:09:44.823Z,14.00
2022-11-09T13:12:42.803Z,13.90
2022-11-09T13:15:34.381Z,13.90
2022-11-09T13:18:29.691Z,14.00
2022-11-09T13:21:53.051Z,14.10
2022-11-09T13:24:59.879Z,14.10
2022-11-09T13:27:49.639Z,14.20
2022-11-09T13:30:44.937Z,14.10
2022-11-09T13:33:34.424Z,14.20
2022-11-09T13:36:23.683Z,14.20
2022-11-09T13:39:34.584Z,14.30
2022-11-09T13:42:32.487Z,14.30
2022-11-09T13:45:30.941Z,14.40
2022-11-09T13:48:35.456Z,14.40
2022-11-09T13:51:27.096Z,14.40
2022-11-09T13:54:32.528Z,14.40
2022-11-09T13:57:21.624Z,14.40
2022-11-09T14:00:23.643Z,14.40
2022-11-09T14:03:22.614Z,14.30
2022-11-09T14:06:15.044Z,14.20
2022-11-09T14:09:05.851Z,14.30
2022-11-09T14:12:09.331Z,14.30
2022-11-09T14:15:16.398Z,14.30
2022-11-09T14:18:29.097Z,14.30
2022-11-09T14:21:38.130Z,14.20
2022-11-09T14:24:30.952Z,14.20
2022-11-09T14:27:22.382Z,14.20
2022-11-09T14:30:23.754Z,14.20
2022-11-09T14:33:24.494Z,14.20
2022-11-09T14:36:15.882Z,14.20
2022-11-09T14:39:07.471Z,14.10
2022-11-09T14:41:56.884Z,14.10
2022-11-09T14:44:47.352Z,14.10
2022-11-09T14:47:41.320Z,14.00
2022-11-09T14:50:32.683Z,14.00
2022-11-09T14:53:25.829Z,14.00
2022-11-09T14:56:18.215Z,14.10
2022-11-09T14:59:09.669Z,14.00
2022-11-09T15:02:04.827Z,14.00
2022-11-09T15:05:01.956Z,14.00
2022-11-09T15:07:51.439Z,14.10
2022-11-09T15:10:44.008Z,14.00
2022-11-09T15:13:36.399Z,14.00
2022-11-09T15:16:26.790Z,14.00
2022-11-09T15:19:30.285Z,14.00
2022-11-09T15:22:54.412Z,14.00
2022-11-09T15:25:57.506Z,14.00
2022-11-09T15:28:49.546Z,13.90
2022-11-09T15:31:38.503Z,13.90
2022-11-09T15:34:29.817Z,13.90
2022-11-09T15:37:28.328Z,13.80
2022-11-09T15:40:21.455Z,13.80
2022-11-09T15:43:10.512Z,13.80
2022-11-09T15:45:59.948Z,13.80
2022-11-09T15:48:49.041Z,13.80
2022-11-09T15:51:38.136Z,13.80
2022-11-09T15:54:27.605Z,13.80
2022-11-09T15:57:22.006Z,13.80
2022-11-09T16:00:19.635Z,13.70
2022-11-09T16:03:09.889Z,13.70
2022-11-09T16:05:59.609Z,13.70
2022-11-09T16:08:51.167Z,13.60
2022-11-09T16:11:40.355Z,13.60
2022-11-09T16:14:34.462Z,13.60
2022-11-09T16:17:23.229Z,13.60
2022-11-09T16:20:13.359Z,13.60
2022-11-09T16:23:02.435Z,13.50
2022-11-09T16:25:51.394Z,13.50
2022-11-09T16:28:40.381Z,13.50
2022-11-09T16:34:40.572Z,13.50
2022-11-09T16:37:31.758Z,13.40
2022-11-09T16:40:20.921Z,13.40
2022-11-09T16:43:10.289Z,13.30
2022-11-09T16:45:59.441Z,13.30
2022-11-09T16:48:50.778Z,13.30
2022-11-09T16:51:39.938Z,13.30
2022-11-09T16:54:28.817Z,13.30
2022-11-09T16:57:17.866Z,13.30
2022-11-09T17:00:07.905Z,13.20
2022-11-09T17:02:57.233Z,13.30
2022-11-09T17:05:48.935Z,13.30
2022-11-09T17:08:37.713Z,13.30
2022-11-09T17:11:27.018Z,13.30
2022-11-09T17:14:15.748Z,13.20
2022-11-09T17:17:04.691Z,13.20
2022-11-09T17:19:53.818Z,13.30
2022-11-09T17:22:46.375Z,13.30
2022-11-09T17:25:35.737Z,13.20
2022-11-09T17:28:24.639Z,13.10
2022-11-09T17:31:15.926Z,13.10
2022-11-09T17:34:04.536Z,13.20
2022-11-09T17:37:08.863Z,13.10
2022-11-09T17:40:00.638Z,13.20
2022-11-09T17:42:49.581Z,13.20
2022-11-09T17:45:39.268Z,13.10
2022-11-09T17:48:28.085Z,13.10
2022-11-09T17:51:18.796Z,13.10
2022-11-09T17:54:08.081Z,13.10
2022-11-09T17:57:01.101Z,13.10
2022-11-09T17:59:50.295Z,13.10
2022-11-09T18:02:39.139Z,13.00
2022-11-09T18:05:29.278Z,13.10
2022-11-09T18:08:18.708Z,13.00
2022-11-09T18:11:08.174Z,13.00
2022-11-09T18:14:00.789Z,13.00
2022-11-09T18:16:49.662Z,13.00
2022-11-09T18:19:41.321Z,12.90
2022-11-09T18:22:30.418Z,13.00
2022-11-09T18:25:19.301Z,13.00
2022-11-09T18:28:08.812Z,13.00
2022-11-09T18:31:05.989Z,13.00
2022-11-09T18:33:55.158Z,12.90
2022-11-09T18:36:43.844Z,12.90
2022-11-09T18:39:33.245Z,13.00
2022-11-09T18:42:22.246Z,12.90
2022-11-09T18:45:12.781Z,12.90
2022-11-09T18:48:04.343Z,12.90
2022-11-09T18:50:54.241Z,12.90
2022-11-09T18:53:45.571Z,12.90
2022-11-09T18:56:34.840Z,12.90
2022-11-09T18:59:23.961Z,12.90
2022-11-09T19:02:15.925Z,12.90
2022-11-09T19:05:09.053Z,12.90
2022-11-09T19:07:57.760Z,12.90
2022-11-09T19:10:46.565Z,13.00
2022-11-09T19:13:35.582Z,12.90
2022-11-09T19:16:24.781Z,12.90
2022-11-09T19:19:15.997Z,12.90
2022-11-09T19:22:12.837Z,12.90
2022-11-09T19:25:01.606Z,12.90
2022-11-09T19:27:50.569Z,12.90
2022-11-09T19:30:39.696Z,12.90
2022-11-09T19:33:28.732Z,12.90
2022-11-09T19:36:34.307Z,12.90
2022-11-09T19:39:29.668Z,12.90
2022-11-09T19:42:22.243Z,12.90
2022-11-09T19:45:13.249Z,12.90
2022-11-09T19:48:02.051Z,12.90
2022-11-09T19:50:51.619Z,12.90
2022-11-09T19:53:42.542Z,12.80
2022-11-09T19:56:37.134Z,12.80
2022-11-09T19:59:25.901Z,12.80
2022-11-09T20:02:15.177Z,12.80
2022-11-09T20:05:04.175Z,12.80
2022-11-09T20:07:53.215Z,12.80
2022-11-09T20:10:42.495Z,12.80
2022-11-09T20:13:33.968Z,12.80
2022-11-09T20:16:22.942Z,12.80
2022-11-09T20:19:14.358Z,12.80
2022-11-09T20:22:03.205Z,12.80
2022-11-09T20:24:52.413Z,12.80
2022-11-09T20:27:41.462Z,12.80
2022-11-09T20:30:33.140Z,12.80
2022-11-09T20:33:22.369Z,12.80
2022-11-09T20:36:12.059Z,12.80
2022-11-09T20:39:01.017Z,12.80
2022-11-09T20:41:50.031Z,12.80
2022-11-09T20:44:39.274Z,12.80
2022-11-09T20:48:02.068Z,12.80
2022-11-09T20:50:39.335Z,12.80
2022-11-09T20:53:28.503Z,12.80
2022-11-09T20:56:18.072Z,12.80
2022-11-09T20:59:07.074Z,12.80
2022-11-09T21:01:56.198Z,12.80
2022-11-09T21:04:47.543Z,12.80
2022-11-09T21:07:36.236Z,12.80
2022-11-09T21:10:25.167Z,12.80
2022-11-09T21:13:14.344Z,12.80
2022-11-09T21:16:08.790Z,12.80
2022-11-09T21:18:57.840Z,12.80
2022-11-09T21:21:49.395Z,12.80
2022-11-09T21:24:50.835Z,12.80
2022-11-09T21:27:51.853Z,12.80
2022-11-09T21:30:40.689Z,12.80
2022-11-09T21:33:29.554Z,12.70
2022-11-09T21:36:18.510Z,12.70
2022-11-09T21:39:10.145Z,12.70
2022-11-09T21:41:58.884Z,12.70
2022-11-09T21:44:47.720Z,12.70
2022-11-09T21:47:36.576Z,12.70
2022-11-09T21:50:25.417Z,12.70
2022-11-09T21:53:14.500Z,12.70
2022-11-09T21:56:06.440Z,12.70
2022-11-09T21:58:55.562Z,12.70
2022-11-09T22:01:44.857Z,12.60
2022-11-09T22:04:33.833Z,12.70
2022-11-09T22:07:22.847Z,12.70
2022-11-09T22:10:12.816Z,12.60
2022-11-09T22:13:16.701Z,12.60
2022-11-09T22:16:09.999Z,12.60
2022-11-09T22:19:11.372Z,12.60
2022-11-09T22:22:00.134Z,12.60
2022-11-09T22:24:49.099Z,12.60
2022-11-09T22:27:38.243Z,12.60
2022-11-09T22:30:29.879Z,12.60
2022-11-09T22:33:25.864Z,12.60
2022-11-09T22:36:18.004Z,12.60
2022-11-09T22:39:07.569Z,12.60
2022-11-09T22:41:56.626Z,12.60
2022-11-09T22:44:45.792Z,12.50
2022-11-09T22:47:37.426Z,12.60
2022-11-09T22:50:26.455Z,12.50
2022-11-09T22:53:15.503Z,12.60
2022-11-09T22:56:06.098Z,12.50
2022-11-09T22:58:55.617Z,12.50
2022-11-09T23:01:44.718Z,12.50
2022-11-09T23:04:36.012Z,12.60
2022-11-09T23:07:24.966Z,12.50
2022-11-09T23:10:14.021Z,12.60
2022-11-09T23:13:03.199Z,12.50
2022-11-09T23:15:57.597Z,12.50
2022-11-09T23:18:59.011Z,12.50
2022-11-09T23:21:50.506Z,12.50
2022-11-09T23:24:51.781Z,12.50
2022-11-09T23:27:40.813Z,12.50
2022-11-09T23:30:30.153Z,12.60
2022-11-09T23:33:19.574Z,12.50
2022-11-09T23:36:10.333Z,12.40
2022-11-09T23:39:01.947Z,12.40
2022-11-09T23:41:50.997Z,12.40
2022-11-09T23:44:39.923Z,12.40
2022-11-09T23:47:28.906Z,12.40
2022-11-09T23:50:17.816Z,12.40
2022-11-09T23:53:06.934Z,12.40
2022-11-09T23:56:02.301Z,12.40
2022-11-09T23:58:52.296Z,12.40
